Time;durP1;ratioP1;P1;durP2;ratioP2;P2;SDS_P1;SDS_P2;PMS_P1;PMS_P2;Temp;Humidity;BMP_temperature;BMP_pressure;BME280_temperature;BME280_humidity;BME280_pressure;Samples;Min_cycle;Max_cycle;Signal;HPM_P1;HPM_P2
2022/08/29 00:01:37;;;;;;;;;;;14.20;99.90;;;;;;5087173;28;19963;-82
2022/08/29 00:04:04;;;;;;;;;;;14.20;99.90;;;;;;5094988;28;19954;-82
2022/08/29 00:06:32;;;;;;;;;;;14.20;99.90;;;;;;5093396;28;19974;-81
2022/08/29 00:08:59;;;;;;;;;;;14.10;99.90;;;;;;5091874;28;19932;-82
2022/08/29 00:11:26;;;;;;;;;;;14.10;99.90;;;;;;5098513;28;19967;-81
2022/08/29 00:13:53;;;;;;;;;;;14.00;99.90;;;;;;5092003;28;20367;-81
2022/08/29 00:16:20;;;;;;;;;;;14.00;99.90;;;;;;5093291;28;19924;-81
2022/08/29 00:18:47;;;;;;;;;;;13.90;99.90;;;;;;5091308;28;19955;-81
2022/08/29 00:21:13;;;;;;;;;;;13.90;99.90;;;;;;5095295;28;19928;-83
2022/08/29 00:23:45;;;;;;;;;;;13.80;99.90;;;;;;5093536;28;19981;-83
2022/08/29 00:26:12;;;;;;;;;;;13.70;99.90;;;;;;5089820;28;19934;-82
2022/08/29 00:28:39;;;;;;;;;;;13.70;99.90;;;;;;5091730;28;20429;-82
2022/08/29 00:31:06;;;;;;;;;;;13.60;99.90;;;;;;5091014;28;19928;-82
2022/08/29 00:33:32;;;;;;;;;;;13.60;99.90;;;;;;5076805;28;20331;-81
2022/08/29 00:35:59;;;;;;;;;;;13.50;99.90;;;;;;5087268;28;19928;-82
2022/08/29 00:38:26;;;;;;;;;;;13.50;99.90;;;;;;5088194;28;19993;-82
2022/08/29 00:40:55;;;;;;;;;;;13.40;99.90;;;;;;5087067;28;19936;-82
2022/08/29 00:43:26;;;;;;;;;;;13.40;99.90;;;;;;5091582;28;19924;-82
2022/08/29 00:45:55;;;;;;;;;;;13.30;99.90;;;;;;5090879;28;19938;-81
2022/08/29 00:48:22;;;;;;;;;;;13.30;99.90;;;;;;5092204;28;19924;-83
2022/08/29 00:50:54;;;;;;;;;;;13.20;99.90;;;;;;5092770;28;19946;-84
2022/08/29 00:53:26;;;;;;;;;;;13.20;99.90;;;;;;5093672;28;20022;-83
2022/08/29 00:55:53;;;;;;;;;;;13.20;99.90;;;;;;5093426;28;20413;-83
2022/08/29 00:58:24;;;;;;;;;;;13.20;99.90;;;;;;5088509;28;20395;-83
2022/08/29 01:00:52;;;;;;;;;;;13.20;99.90;;;;;;5091613;28;19931;-83
2022/08/29 01:03:19;;;;;;;;;;;13.20;99.90;;;;;;5085716;28;19950;-84
2022/08/29 01:05:46;;;;;;;;;;;13.20;99.90;;;;;;5081808;28;19977;-83
2022/08/29 01:08:13;;;;;;;;;;;13.20;99.90;;;;;;5091523;28;19928;-83
2022/08/29 01:13:29;;;;;;;;;;;13.10;99.90;;;;;;5089419;28;19924;-83
2022/08/29 01:15:57;;;;;;;;;;;13.00;99.90;;;;;;5090746;28;19987;-83
2022/08/29 01:18:24;;;;;;;;;;;12.90;99.90;;;;;;5090235;28;19924;-83
2022/08/29 01:20:59;;;;;;;;;;;12.90;99.90;;;;;;5090892;28;19978;-83
2022/08/29 01:23:27;;;;;;;;;;;12.80;99.90;;;;;;5092878;28;20433;-83
2022/08/29 01:25:57;;;;;;;;;;;12.80;99.90;;;;;;5089158;28;20145;-81
2022/08/29 01:28:25;;;;;;;;;;;12.80;99.90;;;;;;5087740;28;19959;-84
2022/08/29 01:31:00;;;;;;;;;;;12.70;99.90;;;;;;5086848;28;20526;-82
2022/08/29 01:33:37;;;;;;;;;;;12.70;99.90;;;;;;5086838;28;19931;-82
2022/08/29 01:36:04;;;;;;;;;;;12.60;99.90;;;;;;5090537;28;20004;-83
2022/08/29 01:38:31;;;;;;;;;;;12.60;99.90;;;;;;5085269;28;19998;-82
2022/08/29 01:40:59;;;;;;;;;;;12.50;99.90;;;;;;5090071;28;19928;-80
2022/08/29 01:43:27;;;;;;;;;;;12.50;99.90;;;;;;5089744;28;19927;-83
2022/08/29 01:45:54;;;;;;;;;;;12.50;99.90;;;;;;5081274;28;19924;-80
2022/08/29 01:48:21;;;;;;;;;;;12.50;99.90;;;;;;5092291;28;20454;-83
2022/08/29 01:50:48;;;;;;;;;;;12.40;99.90;;;;;;5090942;28;19946;-81
2022/08/29 01:53:15;;;;;;;;;;;14.20;99.90;;;;;;5087967;28;19928;-82
2022/08/29 01:55:42;;;;;;;;;;;12.40;99.90;;;;;;5092127;28;20648;-83
2022/08/29 01:58:10;;;;;;;;;;;12.40;99.90;;;;;;5088020;28;19928;-83
2022/08/29 02:00:37;;;;;;;;;;;12.30;99.90;;;;;;5078539;28;20009;-83
2022/08/29 02:03:04;;;;;;;;;;;12.30;99.90;;;;;;5075415;28;19935;-84
2022/08/29 02:05:31;;;;;;;;;;;12.30;99.90;;;;;;5092037;28;20461;-84
2022/08/29 02:07:59;;;;;;;;;;;12.30;99.90;;;;;;5081660;28;19924;-83
2022/08/29 02:10:26;;;;;;;;;;;12.20;99.90;;;;;;5087537;28;19928;-83
2022/08/29 02:12:53;;;;;;;;;;;12.20;99.90;;;;;;5090426;28;19928;-84
2022/08/29 02:15:22;;;;;;;;;;;12.20;99.90;;;;;;5088485;28;19928;-83
2022/08/29 02:17:48;;;;;;;;;;;12.10;99.90;;;;;;5086809;28;20035;-82
2022/08/29 02:20:15;;;;;;;;;;;12.10;99.90;;;;;;5089085;28;20012;-83
2022/08/29 02:22:42;;;;;;;;;;;12.10;99.90;;;;;;5088837;28;20392;-82
2022/08/29 02:27:51;;;;;;;;;;;12.10;99.90;;;;;;5086659;28;19924;-82
2022/08/29 02:30:18;;;;;;;;;;;12.10;99.90;;;;;;5088591;28;19928;-82
2022/08/29 02:32:47;;;;;;;;;;;12.10;99.90;;;;;;5072899;28;20413;-82
2022/08/29 02:35:14;;;;;;;;;;;12.10;99.90;;;;;;5086666;28;20456;-81
2022/08/29 02:37:41;;;;;;;;;;;12.10;99.90;;;;;;5087632;28;19924;-82
2022/08/29 02:40:08;;;;;;;;;;;12.10;99.90;;;;;;5105308;28;20291;-82
2022/08/29 02:42:35;;;;;;;;;;;12.10;99.90;;;;;;5089724;28;20023;-82
2022/08/29 02:45:04;;;;;;;;;;;12.10;99.90;;;;;;5088567;28;20434;-82
2022/08/29 02:47:40;;;;;;;;;;;12.00;99.90;;;;;;5089205;28;19924;-82
2022/08/29 02:50:10;;;;;;;;;;;12.10;99.90;;;;;;5090615;28;19928;-82
2022/08/29 02:52:38;;;;;;;;;;;12.00;99.90;;;;;;5096505;28;20015;-82
2022/08/29 02:55:05;;;;;;;;;;;12.00;99.90;;;;;;5080572;28;19966;-82
2022/08/29 02:57:32;;;;;;;;;;;12.00;99.90;;;;;;5088444;28;19935;-82
2022/08/29 02:59:59;;;;;;;;;;;12.00;99.90;;;;;;5092149;28;19924;-82
2022/08/29 03:02:26;;;;;;;;;;;11.90;99.90;;;;;;5085181;28;20725;-82
2022/08/29 03:04:53;;;;;;;;;;;11.90;99.90;;;;;;5090416;28;19924;-82
2022/08/29 03:07:21;;;;;;;;;;;11.90;99.90;;;;;;5078519;28;19928;-82
2022/08/29 03:09:48;;;;;;;;;;;11.90;99.90;;;;;;5089870;28;19982;-83
2022/08/29 03:12:15;;;;;;;;;;;11.90;99.90;;;;;;5092064;28;19928;-82
2022/08/29 03:14:42;;;;;;;;;;;11.90;99.90;;;;;;5091276;28;19928;-81
2022/08/29 03:17:09;;;;;;;;;;;11.90;99.90;;;;;;5092453;28;19987;-82
2022/08/29 03:19:36;;;;;;;;;;;11.90;99.90;;;;;;5077430;28;19935;-82
2022/08/29 03:22:03;;;;;;;;;;;11.90;99.90;;;;;;5080829;28;19959;-81
2022/08/29 03:24:33;;;;;;;;;;;11.80;99.90;;;;;;5089823;28;19928;-82
2022/08/29 03:27:00;;;;;;;;;;;11.80;99.90;;;;;;5092553;28;20306;-82
2022/08/29 03:29:27;;;;;;;;;;;11.80;99.90;;;;;;5088411;28;19932;-80
2022/08/29 03:31:57;;;;;;;;;;;11.80;99.90;;;;;;5082328;28;19931;-80
2022/08/29 03:34:23;;;;;;;;;;;11.80;99.90;;;;;;5092803;28;19924;-81
2022/08/29 03:36:51;;;;;;;;;;;11.80;99.90;;;;;;5091103;28;20414;-81
2022/08/29 03:39:19;;;;;;;;;;;11.80;99.90;;;;;;5091141;28;19924;-82
2022/08/29 03:41:51;;;;;;;;;;;11.80;99.90;;;;;;5092986;28;19924;-82
2022/08/29 03:44:18;;;;;;;;;;;11.80;99.90;;;;;;5094244;28;19943;-82
2022/08/29 03:46:46;;;;;;;;;;;11.80;99.90;;;;;;5091622;28;19928;-81
2022/08/29 03:49:14;;;;;;;;;;;11.80;99.90;;;;;;5091099;28;19928;-81
2022/08/29 03:51:41;;;;;;;;;;;11.80;99.90;;;;;;5090559;28;20376;-81
2022/08/29 03:54:08;;;;;;;;;;;11.80;99.90;;;;;;5093022;28;19946;-81
2022/08/29 03:56:35;;;;;;;;;;;11.80;99.90;;;;;;5102274;28;19927;-81
2022/08/29 03:59:03;;;;;;;;;;;11.70;99.90;;;;;;5095135;28;19936;-80
2022/08/29 04:01:30;;;;;;;;;;;11.80;99.90;;;;;;5087410;28;20030;-80
2022/08/29 04:03:58;;;;;;;;;;;11.80;99.90;;;;;;5076288;28;19936;-81
2022/08/29 04:06:27;;;;;;;;;;;11.80;99.90;;;;;;5080297;28;19924;-81
2022/08/29 04:08:54;;;;;;;;;;;11.80;99.90;;;;;;5086889;28;19973;-81
2022/08/29 04:11:23;;;;;;;;;;;11.80;99.90;;;;;;5090074;28;20342;-81
2022/08/29 04:13:50;;;;;;;;;;;11.80;99.90;;;;;;5086659;28;20318;-81
2022/08/29 04:16:20;;;;;;;;;;;11.80;99.90;;;;;;5090078;28;19980;-80
2022/08/29 04:18:47;;;;;;;;;;;11.80;99.90;;;;;;5090238;28;19939;-79
2022/08/29 04:21:14;;;;;;;;;;;11.70;99.90;;;;;;5090676;28;19939;-80
2022/08/29 04:23:41;;;;;;;;;;;11.70;99.90;;;;;;5086806;28;19961;-80
2022/08/29 04:26:13;;;;;;;;;;;11.70;99.90;;;;;;5088541;28;19935;-80
2022/08/29 04:28:40;;;;;;;;;;;11.70;99.90;;;;;;5089194;28;20331;-80
2022/08/29 04:31:11;;;;;;;;;;;11.70;99.90;;;;;;5077514;28;19959;-79
2022/08/29 04:33:40;;;;;;;;;;;11.70;99.90;;;;;;5080459;28;19995;-79
2022/08/29 04:36:07;;;;;;;;;;;11.70;99.90;;;;;;5084424;28;20246;-79
2022/08/29 04:38:34;;;;;;;;;;;11.80;99.90;;;;;;5076254;28;19967;-78
2022/08/29 04:41:04;;;;;;;;;;;11.80;99.90;;;;;;5087487;28;19928;-78
2022/08/29 04:43:31;;;;;;;;;;;11.80;99.90;;;;;;5088874;28;20727;-80
2022/08/29 04:45:59;;;;;;;;;;;11.80;99.90;;;;;;5095406;28;19965;-80
2022/08/29 04:48:26;;;;;;;;;;;11.80;99.90;;;;;;5090103;28;19924;-80
2022/08/29 04:50:55;;;;;;;;;;;11.90;99.90;;;;;;5093246;28;19924;-78
2022/08/29 04:53:22;;;;;;;;;;;11.90;99.90;;;;;;5091463;28;19935;-80
2022/08/29 04:55:56;;;;;;;;;;;11.90;99.90;;;;;;5088799;28;20371;-79
2022/08/29 04:58:24;;;;;;;;;;;12.00;99.90;;;;;;5110453;27;20018;-79
2022/08/29 05:00:51;;;;;;;;;;;12.00;99.90;;;;;;5087606;28;19955;-79
2022/08/29 05:03:18;;;;;;;;;;;12.00;99.90;;;;;;5084195;28;20410;-79
2022/08/29 05:05:45;;;;;;;;;;;12.00;99.90;;;;;;5086665;28;20622;-78
2022/08/29 05:08:13;;;;;;;;;;;12.10;99.90;;;;;;5090687;28;19983;-78
2022/08/29 05:10:43;;;;;;;;;;;12.10;99.90;;;;;;5090789;28;19966;-79
2022/08/29 05:13:11;;;;;;;;;;;12.20;99.90;;;;;;5088448;28;19935;-80
2022/08/29 05:15:38;;;;;;;;;;;12.20;99.90;;;;;;5088511;28;20644;-79
2022/08/29 05:18:05;;;;;;;;;;;12.30;99.90;;;;;;5076269;28;19929;-79
2022/08/29 05:20:32;;;;;;;;;;;12.40;99.90;;;;;;5085229;28;19958;-79
2022/08/29 05:22:59;;;;;;;;;;;12.50;99.90;;;;;;5087514;28;19967;-79
2022/08/29 05:25:35;;;;;;;;;;;12.60;99.90;;;;;;5080306;28;19964;-80
2022/08/29 05:28:03;;;;;;;;;;;12.40;99.90;;;;;;5085998;28;19924;-80
2022/08/29 05:30:32;;;;;;;;;;;12.70;99.90;;;;;;5088484;28;19993;-80
2022/08/29 05:32:59;;;;;;;;;;;12.80;99.90;;;;;;5084051;28;20341;-80
2022/08/29 05:35:26;;;;;;;;;;;12.90;99.90;;;;;;5081359;28;19928;-80
2022/08/29 05:37:53;;;;;;;;;;;13.10;99.90;;;;;;5085088;28;19927;-83
2022/08/29 05:40:21;;;;;;;;;;;13.30;99.90;;;;;;5095565;28;19933;-79
2022/08/29 05:42:49;;;;;;;;;;;13.40;99.90;;;;;;5089891;28;19947;-77
2022/08/29 05:45:17;;;;;;;;;;;13.60;99.90;;;;;;5089629;28;19954;-77
2022/08/29 05:47:44;;;;;;;;;;;13.90;99.90;;;;;;5091675;28;19963;-76
2022/08/29 05:50:12;;;;;;;;;;;14.10;99.90;;;;;;5097939;28;20294;-78
2022/08/29 05:52:40;;;;;;;;;;;14.30;99.90;;;;;;5092593;28;20315;-78
2022/08/29 05:55:07;;;;;;;;;;;14.50;99.90;;;;;;5091067;28;19935;-77
2022/08/29 05:57:34;;;;;;;;;;;15.10;99.90;;;;;;5096092;28;19993;-78
2022/08/29 06:00:04;;;;;;;;;;;15.60;99.90;;;;;;5096236;28;19928;-78
2022/08/29 06:02:39;;;;;;;;;;;15.90;99.90;;;;;;5085396;28;19934;-77
2022/08/29 06:05:06;;;;;;;;;;;16.50;99.90;;;;;;5091738;28;19925;-78
2022/08/29 06:07:33;;;;;;;;;;;16.90;99.90;;;;;;5084497;28;19950;-76
2022/08/29 06:10:05;;;;;;;;;;;17.90;99.90;;;;;;5088911;28;19932;-78
2022/08/29 06:12:32;;;;;;;;;;;18.80;99.90;;;;;;5090800;28;19924;-78
2022/08/29 06:14:59;;;;;;;;;;;19.90;99.90;;;;;;5096362;28;19931;-77
2022/08/29 06:17:27;;;;;;;;;;;21.10;99.90;;;;;;5092051;28;19932;-78
2022/08/29 06:19:54;;;;;;;;;;;21.90;99.90;;;;;;5093329;28;19946;-78
2022/08/29 06:22:21;;;;;;;;;;;22.60;99.90;;;;;;5095836;28;19989;-78
2022/08/29 06:24:51;;;;;;;;;;;23.20;99.90;;;;;;5089413;28;20433;-78
2022/08/29 06:27:18;;;;;;;;;;;23.50;99.90;;;;;;5091393;28;20042;-78
2022/08/29 06:29:45;;;;;;;;;;;23.20;99.90;;;;;;5096430;28;19928;-77
2022/08/29 06:32:12;;;;;;;;;;;22.90;99.90;;;;;;5085492;28;20304;-77
2022/08/29 06:34:41;;;;;;;;;;;22.30;99.90;;;;;;5094078;28;19980;-77
2022/08/29 06:37:08;;;;;;;;;;;22.20;99.90;;;;;;5094880;28;19936;-77
2022/08/29 06:39:35;;;;;;;;;;;22.00;99.90;;;;;;5094167;28;20442;-78
2022/08/29 06:42:01;;;;;;;;;;;21.90;99.90;;;;;;5095076;28;19974;-77
2022/08/29 06:44:30;;;;;;;;;;;21.80;99.90;;;;;;5098623;28;19928;-78
2022/08/29 06:46:58;;;;;;;;;;;21.80;99.90;;;;;;5101172;28;19932;-77
2022/08/29 06:49:26;;;;;;;;;;;21.70;99.90;;;;;;5097278;28;19928;-78
2022/08/29 06:51:54;;;;;;;;;;;21.70;99.90;;;;;;5095713;28;19959;-79
2022/08/29 06:54:22;;;;;;;;;;;22.30;99.90;;;;;;5088999;28;20022;-77
2022/08/29 06:56:49;;;;;;;;;;;22.50;99.90;;;;;;5099275;28;20036;-77
2022/08/29 06:59:18;;;;;;;;;;;23.10;99.90;;;;;;5093916;28;19939;-77
2022/08/29 07:01:45;;;;;;;;;;;23.70;99.90;;;;;;5105869;28;20369;-77
2022/08/29 07:04:13;;;;;;;;;;;24.60;99.90;;;;;;5088611;28;19978;-78
2022/08/29 07:06:40;;;;;;;;;;;25.40;99.90;;;;;;5091002;28;20451;-80
2022/08/29 07:09:09;;;;;;;;;;;26.00;99.90;;;;;;5088127;28;20016;-79
2022/08/29 07:11:38;;;;;;;;;;;26.70;99.90;;;;;;5103137;28;19961;-78
2022/08/29 07:14:05;;;;;;;;;;;26.80;99.90;;;;;;5094537;28;19943;-79
2022/08/29 07:16:33;;;;;;;;;;;27.30;99.90;;;;;;5088606;28;20409;-77
2022/08/29 07:19:02;;;;;;;;;;;27.30;99.90;;;;;;5092634;28;19941;-79
2022/08/29 07:21:29;;;;;;;;;;;27.70;99.90;;;;;;5092708;28;19935;-77
2022/08/29 07:23:57;;;;;;;;;;;28.00;99.90;;;;;;5078702;28;19924;-77
2022/08/29 07:26:27;;;;;;;;;;;28.10;99.90;;;;;;5088822;28;19932;-78
2022/08/29 07:28:55;;;;;;;;;;;28.30;99.90;;;;;;5084280;28;20027;-78
2022/08/29 07:31:22;;;;;;;;;;;28.40;99.90;;;;;;5086512;28;19928;-77
2022/08/29 07:33:49;;;;;;;;;;;28.70;99.90;;;;;;5093291;28;19928;-79
2022/08/29 07:36:16;;;;;;;;;;;28.70;99.90;;;;;;5108429;28;19928;-77
2022/08/29 07:38:45;;;;;;;;;;;29.00;99.90;;;;;;5084665;28;19929;-77
2022/08/29 07:41:13;;;;;;;;;;;29.20;99.90;;;;;;5093456;28;20015;-77
2022/08/29 07:43:42;;;;;;;;;;;29.40;96.90;;;;;;5087246;28;20387;-77
2022/08/29 07:46:09;;;;;;;;;;;29.30;97.00;;;;;;5092600;28;19928;-77
2022/08/29 07:48:36;;;;;;;;;;;29.10;97.00;;;;;;5101020;28;19927;-78
2022/08/29 07:51:06;;;;;;;;;;;29.20;97.40;;;;;;5094473;28;19928;-78
2022/08/29 07:53:33;;;;;;;;;;;29.20;96.40;;;;;;5094160;28;20467;-77
2022/08/29 07:56:04;;;;;;;;;;;29.40;96.10;;;;;;5094671;28;19977;-77
2022/08/29 07:58:31;;;;;;;;;;;29.40;94.50;;;;;;5094390;28;19924;-78
2022/08/29 08:00:59;;;;;;;;;;;29.40;94.60;;;;;;5093725;28;19958;-78
2022/08/29 08:03:27;;;;;;;;;;;29.90;94.20;;;;;;5092267;28;19973;-79
2022/08/29 08:05:57;;;;;;;;;;;30.30;93.40;;;;;;5074036;28;20299;-78
2022/08/29 08:08:24;;;;;;;;;;;30.60;91.50;;;;;;5077833;28;19932;-77
2022/08/29 08:10:51;;;;;;;;;;;30.40;91.10;;;;;;5073605;28;19960;-77
2022/08/29 08:13:18;;;;;;;;;;;30.10;90.50;;;;;;5072003;28;19928;-77
2022/08/29 08:15:45;;;;;;;;;;;29.40;88.10;;;;;;5090308;28;19924;-78
2022/08/29 08:18:13;;;;;;;;;;;28.40;89.50;;;;;;5093967;28;20405;-76
2022/08/29 08:20:46;;;;;;;;;;;27.60;88.90;;;;;;5086534;28;19939;-77
2022/08/29 08:23:14;;;;;;;;;;;26.10;89.60;;;;;;5089275;28;19932;-76
2022/08/29 08:25:41;;;;;;;;;;;25.50;90.70;;;;;;5094978;28;19978;-77
2022/08/29 08:28:08;;;;;;;;;;;25.00;91.40;;;;;;5088007;28;19939;-77
2022/08/29 08:30:35;;;;;;;;;;;23.90;91.70;;;;;;5088581;28;19928;-77
2022/08/29 08:33:02;;;;;;;;;;;23.60;92.70;;;;;;5085605;28;19935;-77
2022/08/29 08:35:33;;;;;;;;;;;23.50;93.00;;;;;;5089375;28;19924;-77
2022/08/29 08:38:00;;;;;;;;;;;22.90;93.30;;;;;;5104638;28;19932;-79
2022/08/29 08:40:29;;;;;;;;;;;23.40;94.00;;;;;;5083676;28;20019;-78
2022/08/29 08:42:59;;;;;;;;;;;23.40;94.30;;;;;;5085980;28;20245;-79
2022/08/29 08:45:28;;;;;;;;;;;23.80;94.50;;;;;;5086842;28;19928;-80
2022/08/29 08:47:59;;;;;;;;;;;23.90;94.40;;;;;;5086035;28;19932;-78
2022/08/29 08:50:31;;;;;;;;;;;24.00;94.60;;;;;;5088247;28;19935;-80
2022/08/29 08:53:03;;;;;;;;;;;24.30;94.60;;;;;;5091672;28;19935;-79
2022/08/29 08:55:34;;;;;;;;;;;24.60;94.30;;;;;;5088644;28;20025;-79
2022/08/29 08:58:05;;;;;;;;;;;24.70;94.60;;;;;;5090269;28;19996;-76
2022/08/29 09:00:37;;;;;;;;;;;24.70;93.90;;;;;;5086394;28;20043;-78
2022/08/29 09:03:08;;;;;;;;;;;24.50;93.60;;;;;;5081012;28;19935;-78
2022/08/29 09:05:41;;;;;;;;;;;24.00;93.10;;;;;;5080096;28;19928;-77
2022/08/29 09:08:15;;;;;;;;;;;23.60;93.70;;;;;;5091348;28;19928;-78
2022/08/29 09:10:47;;;;;;;;;;;23.50;94.10;;;;;;5092916;28;19928;-80
2022/08/29 09:13:21;;;;;;;;;;;23.50;94.20;;;;;;5094151;28;20110;-78
2022/08/29 09:15:51;;;;;;;;;;;23.50;94.00;;;;;;5093878;28;20144;-78
2022/08/29 09:18:24;;;;;;;;;;;23.30;94.50;;;;;;5091573;28;19981;-77
2022/08/29 09:20:51;;;;;;;;;;;23.50;94.90;;;;;;5091638;28;19928;-77
2022/08/29 09:23:22;;;;;;;;;;;23.70;94.70;;;;;;5088815;28;19924;-77
2022/08/29 09:25:50;;;;;;;;;;;23.80;94.20;;;;;;5078892;28;20464;-78
2022/08/29 09:28:17;;;;;;;;;;;23.90;94.50;;;;;;5086697;28;19960;-77
2022/08/29 09:31:04;;;;;;;;;;;23.90;94.70;;;;;;5082286;28;20653;-77
2022/08/29 09:33:40;;;;;;;;;;;24.10;94.90;;;;;;5088632;28;19965;-77
2022/08/29 09:36:08;;;;;;;;;;;24.50;94.40;;;;;;5089756;28;19959;-77
2022/08/29 09:38:37;;;;;;;;;;;24.60;94.00;;;;;;5090406;28;19936;-77
2022/08/29 09:41:06;;;;;;;;;;;24.70;93.90;;;;;;5090112;28;19969;-77
2022/08/29 09:43:44;;;;;;;;;;;24.60;93.90;;;;;;5090838;28;19928;-77
2022/08/29 09:46:17;;;;;;;;;;;24.60;93.70;;;;;;5090137;28;20639;-75
2022/08/29 09:48:45;;;;;;;;;;;24.40;93.70;;;;;;5091735;28;19924;-76
2022/08/29 09:51:14;;;;;;;;;;;24.10;93.70;;;;;;5089438;28;19924;-77
2022/08/29 09:53:43;;;;;;;;;;;23.70;93.50;;;;;;5069816;28;20303;-76
2022/08/29 09:56:15;;;;;;;;;;;23.70;93.80;;;;;;5068438;28;19955;-78
2022/08/29 09:58:42;;;;;;;;;;;23.80;94.30;;;;;;5069351;28;20414;-77
2022/08/29 10:01:11;;;;;;;;;;;23.80;94.10;;;;;;5069997;28;19928;-76
2022/08/29 10:03:41;;;;;;;;;;;23.90;93.90;;;;;;5069735;28;20000;-76
2022/08/29 10:06:09;;;;;;;;;;;23.90;93.50;;;;;;5069596;28;20432;-77
2022/08/29 10:08:40;;;;;;;;;;;23.80;93.50;;;;;;5068511;28;19935;-77
2022/08/29 10:11:27;;;;;;;;;;;23.70;93.80;;;;;;5085397;28;19928;-76
2022/08/29 10:13:56;;;;;;;;;;;23.60;93.50;;;;;;5081093;28;19979;-80
2022/08/29 10:16:31;;;;;;;;;;;23.20;93.60;;;;;;5083311;28;19989;-78
2022/08/29 10:19:00;;;;;;;;;;;23.60;94.20;;;;;;5107419;28;20213;-79
2022/08/29 10:21:31;;;;;;;;;;;23.60;93.70;;;;;;5090032;28;20031;-82
2022/08/29 10:24:02;;;;;;;;;;;23.50;93.50;;;;;;5086814;28;19960;-80
2022/08/29 10:26:33;;;;;;;;;;;23.60;93.60;;;;;;5082101;28;20332;-81
2022/08/29 10:29:08;;;;;;;;;;;23.50;93.80;;;;;;5087052;28;20342;-82
2022/08/29 10:31:36;;;;;;;;;;;23.60;93.80;;;;;;5095114;28;20335;-81
2022/08/29 10:34:15;;;;;;;;;;;23.80;93.50;;;;;;5109288;28;19932;-81
2022/08/29 10:36:46;;;;;;;;;;;23.80;93.50;;;;;;5089966;28;19928;-82
2022/08/29 10:39:14;;;;;;;;;;;24.00;92.90;;;;;;5093606;28;19924;-81
2022/08/29 10:41:52;;;;;;;;;;;24.00;92.60;;;;;;5090976;28;19928;-81
2022/08/29 10:44:25;;;;;;;;;;;24.00;92.30;;;;;;5089108;28;20319;-79
2022/08/29 10:46:55;;;;;;;;;;;24.00;92.00;;;;;;5086110;28;19928;-79
2022/08/29 10:49:25;;;;;;;;;;;23.80;92.00;;;;;;5085463;28;19929;-78
2022/08/29 10:51:56;;;;;;;;;;;23.70;91.80;;;;;;5083868;28;19973;-79
2022/08/29 10:54:27;;;;;;;;;;;23.60;92.00;;;;;;5080784;28;19924;-80
2022/08/29 10:56:56;;;;;;;;;;;23.40;91.70;;;;;;5074912;28;20310;-79
2022/08/29 10:59:28;;;;;;;;;;;23.00;91.70;;;;;;5079860;28;19928;-79
2022/08/29 11:01:58;;;;;;;;;;;22.80;92.20;;;;;;5095040;28;20391;-80
2022/08/29 11:04:28;;;;;;;;;;;22.70;92.60;;;;;;5084577;28;20080;-79
2022/08/29 11:06:57;;;;;;;;;;;22.80;92.90;;;;;;5085231;28;19924;-78
2022/08/29 11:09:27;;;;;;;;;;;23.00;92.90;;;;;;5086325;28;20027;-78
2022/08/29 11:12:07;;;;;;;;;;;23.40;92.40;;;;;;5086326;28;19935;-78
2022/08/29 11:14:38;;;;;;;;;;;23.60;92.40;;;;;;5087090;28;20565;-77
2022/08/29 11:17:08;;;;;;;;;;;23.90;92.60;;;;;;5088715;28;19972;-78
2022/08/29 11:19:41;;;;;;;;;;;24.30;92.40;;;;;;5085675;28;20000;-78
2022/08/29 11:22:11;;;;;;;;;;;24.60;92.20;;;;;;5084757;28;20352;-77
2022/08/29 11:24:43;;;;;;;;;;;24.60;91.00;;;;;;5089533;28;19950;-79
2022/08/29 11:27:22;;;;;;;;;;;24.30;90.60;;;;;;5089046;28;19932;-80
2022/08/29 11:29:54;;;;;;;;;;;24.40;91.10;;;;;;5091809;28;19928;-81
2022/08/29 11:32:25;;;;;;;;;;;24.60;91.00;;;;;;5094758;28;19932;-81
2022/08/29 11:35:00;;;;;;;;;;;24.80;91.20;;;;;;5093888;28;19924;-81
2022/08/29 11:37:36;;;;;;;;;;;25.20;91.10;;;;;;5091383;28;19928;-80
2022/08/29 11:40:07;;;;;;;;;;;25.40;90.80;;;;;;5088355;28;20423;-80
2022/08/29 11:42:37;;;;;;;;;;;25.60;90.00;;;;;;5078588;28;19928;-78
2022/08/29 11:45:05;;;;;;;;;;;25.70;90.00;;;;;;5090429;28;19939;-77
2022/08/29 11:47:34;;;;;;;;;;;25.70;89.90;;;;;;5082695;28;19942;-77
2022/08/29 11:50:06;;;;;;;;;;;25.70;88.60;;;;;;5089312;28;19928;-77
2022/08/29 11:52:33;;;;;;;;;;;25.70;88.40;;;;;;5088231;28;19986;-77
2022/08/29 11:55:18;;;;;;;;;;;25.80;88.90;;;;;;5089127;28;19934;-78
2022/08/29 11:57:48;;;;;;;;;;;25.90;87.70;;;;;;5083001;28;19939;-79
2022/08/29 12:00:39;;;;;;;;;;;26.00;86.60;;;;;;5089933;28;20776;-78
2022/08/29 12:03:37;;;;;;;;;;;26.00;87.40;;;;;;5075879;28;19935;-78
2022/08/29 12:06:05;;;;;;;;;;;26.00;87.20;;;;;;5097877;28;20302;-78
2022/08/29 12:08:36;;;;;;;;;;;25.90;86.30;;;;;;5097054;28;19931;-78
2022/08/29 12:11:03;;;;;;;;;;;25.90;86.90;;;;;;5094493;28;19935;-77
2022/08/29 12:13:57;;;;;;;;;;;25.80;86.10;;;;;;5094351;28;19932;-78
2022/08/29 12:16:43;;;;;;;;;;;25.70;85.70;;;;;;5095684;28;20283;-78
2022/08/29 12:19:10;;;;;;;;;;;25.70;86.30;;;;;;5094272;28;19983;-77
2022/08/29 12:21:45;;;;;;;;;;;25.80;85.60;;;;;;5094592;28;19931;-77
2022/08/29 12:24:27;;;;;;;;;;;25.70;85.00;;;;;;5073405;28;19956;-77
2022/08/29 12:26:54;;;;;;;;;;;25.70;85.80;;;;;;5089407;28;19928;-77
2022/08/29 12:29:24;;;;;;;;;;;25.90;84.40;;;;;;5100220;28;20354;-79
2022/08/29 12:32:05;;;;;;;;;;;26.00;84.60;;;;;;5082109;28;19974;-80
2022/08/29 12:34:42;;;;;;;;;;;26.20;84.20;;;;;;5091024;28;19967;-79
2022/08/29 12:37:24;;;;;;;;;;;26.20;82.70;;;;;;5115049;27;19928;-79
2022/08/29 12:39:59;;;;;;;;;;;26.30;82.90;;;;;;5087746;28;19932;-79
2022/08/29 12:42:32;;;;;;;;;;;26.30;82.40;;;;;;5088467;28;19924;-79
2022/08/29 12:45:01;;;;;;;;;;;26.30;83.00;;;;;;5083793;28;19935;-79
2022/08/29 12:47:32;;;;;;;;;;;26.40;82.10;;;;;;5084523;28;19935;-79
2022/08/29 12:50:01;;;;;;;;;;;26.50;81.70;;;;;;5090248;28;19973;-80
2022/08/29 12:52:30;;;;;;;;;;;26.50;81.20;;;;;;5089058;28;19932;-79
2022/08/29 12:54:58;;;;;;;;;;;26.50;81.50;;;;;;5092585;28;19959;-79
2022/08/29 12:57:30;;;;;;;;;;;26.50;80.30;;;;;;5088051;28;19928;-79
2022/08/29 12:59:58;;;;;;;;;;;26.50;81.50;;;;;;5090883;28;19924;-79
2022/08/29 13:02:26;;;;;;;;;;;26.50;81.10;;;;;;5091090;28;19959;-80
2022/08/29 13:04:55;;;;;;;;;;;26.60;81.50;;;;;;5091412;28;19952;-79
2022/08/29 13:07:23;;;;;;;;;;;26.80;81.70;;;;;;5090131;28;20023;-79
2022/08/29 13:09:52;;;;;;;;;;;26.90;80.70;;;;;;5089987;28;19928;-80
2022/08/29 13:12:21;;;;;;;;;;;26.90;79.60;;;;;;5086950;28;19967;-80
2022/08/29 13:14:54;;;;;;;;;;;27.00;80.00;;;;;;5090922;28;20015;-80
2022/08/29 13:17:22;;;;;;;;;;;27.10;79.80;;;;;;5086504;28;19935;-80
2022/08/29 13:20:08;;;;;;;;;;;27.30;80.20;;;;;;5091172;28;19924;-80
2022/08/29 13:22:36;;;;;;;;;;;27.50;79.20;;;;;;5091882;28;19974;-80
2022/08/29 13:25:05;;;;;;;;;;;27.60;77.90;;;;;;5087394;28;19928;-80
2022/08/29 13:27:32;;;;;;;;;;;27.50;77.00;;;;;;5085348;28;19932;-78
2022/08/29 13:29:59;;;;;;;;;;;27.30;76.60;;;;;;5083556;28;19934;-78
2022/08/29 13:32:27;;;;;;;;;;;27.20;76.70;;;;;;5088451;28;19962;-78
2022/08/29 13:35:06;;;;;;;;;;;27.20;76.20;;;;;;5088712;28;20018;-78
2022/08/29 13:37:37;;;;;;;;;;;27.20;76.40;;;;;;5085919;28;20019;-78
2022/08/29 13:40:23;;;;;;;;;;;27.20;76.00;;;;;;5080815;28;19970;-79
2022/08/29 13:42:51;;;;;;;;;;;27.20;76.60;;;;;;5088861;28;19924;-78
2022/08/29 13:45:23;;;;;;;;;;;27.20;75.50;;;;;;5089341;28;19985;-79
2022/08/29 13:47:52;;;;;;;;;;;27.10;75.90;;;;;;5080254;28;19928;-79
2022/08/29 13:50:20;;;;;;;;;;;27.20;76.20;;;;;;5086388;28;19932;-79
2022/08/29 13:52:51;;;;;;;;;;;27.30;76.10;;;;;;5089504;28;19935;-79
2022/08/29 13:55:18;;;;;;;;;;;27.40;76.50;;;;;;5085512;28;20302;-79
2022/08/29 13:57:49;;;;;;;;;;;27.50;74.90;;;;;;5084236;28;19924;-77
2022/08/29 14:00:16;;;;;;;;;;;27.30;73.80;;;;;;5085280;28;20074;-78
2022/08/29 14:02:44;;;;;;;;;;;27.10;74.60;;;;;;5089817;28;19956;-78
2022/08/29 14:05:12;;;;;;;;;;;27.10;74.50;;;;;;5083850;28;19931;-78
2022/08/29 14:07:40;;;;;;;;;;;27.00;73.50;;;;;;5089325;28;19928;-78
2022/08/29 14:10:10;;;;;;;;;;;27.00;73.50;;;;;;5087908;28;19925;-78
2022/08/29 14:12:38;;;;;;;;;;;27.30;73.50;;;;;;5085151;28;20497;-77
2022/08/29 14:15:06;;;;;;;;;;;26.80;73.50;;;;;;5079596;28;20426;-78
2022/08/29 14:17:33;;;;;;;;;;;26.80;72.80;;;;;;5085474;28;20007;-79
2022/08/29 14:20:00;;;;;;;;;;;26.80;73.40;;;;;;5084228;28;20320;-78
2022/08/29 14:22:27;;;;;;;;;;;26.90;72.60;;;;;;5085601;28;20108;-77
2022/08/29 14:25:09;;;;;;;;;;;26.90;72.50;;;;;;5087808;28;19973;-80
2022/08/29 14:27:38;;;;;;;;;;;26.90;72.60;;;;;;5080924;28;19928;-78
2022/08/29 14:30:07;;;;;;;;;;;26.90;70.20;;;;;;5086406;28;19934;-79
2022/08/29 14:32:33;;;;;;;;;;;26.70;71.10;;;;;;5087025;28;19986;-78
2022/08/29 14:35:01;;;;;;;;;;;26.70;70.50;;;;;;5083589;28;19935;-79